createdAt,value
2016-07-13T00:00:23.454Z,996.04
2016-07-13T00:01:23.478Z,996.06
2016-07-13T00:02:23.496Z,996.05
2016-07-13T00:03:23.516Z,996.06
2016-07-13T00:04:23.538Z,996.09
2016-07-13T00:05:23.558Z,996.07
2016-07-13T00:06:23.576Z,996.04
2016-07-13T00:07:23.596Z,996.05
2016-07-13T00:08:23.619Z,996.03
2016-07-13T00:09:23.639Z,996.07
2016-07-13T00:10:23.656Z,996.04
2016-07-13T00:11:23.680Z,996.03
2016-07-13T00:12:23.697Z,996
2016-07-13T00:13:23.719Z,996.01
2016-07-13T00:14:23.742Z,995.99
2016-07-13T00:15:23.763Z,995.99
2016-07-13T00:16:23.776Z,996
2016-07-13T00:17:23.801Z,995.99
2016-07-13T00:18:23.821Z,996.04
2016-07-13T00:19:23.841Z,996.02
2016-07-13T00:20:23.861Z,996.03
2016-07-13T00:21:23.880Z,996.05
2016-07-13T00:22:23.900Z,996.06
2016-07-13T00:23:23.918Z,996.05
2016-07-13T00:24:23.942Z,996.02
2016-07-13T00:25:23.962Z,996
2016-07-13T00:26:23.984Z,995.96
2016-07-13T00:27:24.000Z,995.97
2016-07-13T00:28:24.020Z,995.95
2016-07-13T00:29:24.043Z,995.93
2016-07-13T00:30:24.061Z,995.95
2016-07-13T00:31:24.083Z,995.93
2016-07-13T00:32:24.102Z,995.93
2016-07-13T00:33:24.121Z,995.97
2016-07-13T00:34:24.141Z,995.96
2016-07-13T00:35:24.161Z,995.95
2016-07-13T00:36:24.182Z,995.93
2016-07-13T00:37:24.206Z,995.94
2016-07-13T00:38:24.222Z,995.97
2016-07-13T00:39:24.244Z,996
2016-07-13T00:40:24.262Z,995.98
2016-07-13T00:41:24.284Z,995.99
2016-07-13T00:42:24.299Z,996
2016-07-13T00:43:24.320Z,995.98
2016-07-13T00:44:24.343Z,996.02
2016-07-13T00:45:24.362Z,996.04
2016-07-13T00:46:24.382Z,996.03
2016-07-13T00:47:24.401Z,996.04
2016-07-13T00:48:24.423Z,996.05
2016-07-13T00:49:24.444Z,996.1
2016-07-13T00:50:24.463Z,996.09
2016-07-13T00:51:24.483Z,996.13
2016-07-13T00:52:24.505Z,996.08
2016-07-13T00:53:24.525Z,996.08
2016-07-13T00:54:24.543Z,996.07
2016-07-13T00:55:24.564Z,996.05
2016-07-13T00:56:24.585Z,996.15
2016-07-13T00:57:24.601Z,996.11
2016-07-13T00:58:24.622Z,996.08
2016-07-13T00:59:24.646Z,996.1
2016-07-13T01:00:24.665Z,996.09
2016-07-13T01:01:24.684Z,996.08
2016-07-13T01:02:24.705Z,996.11
2016-07-13T01:03:24.726Z,996.09
2016-07-13T01:04:24.746Z,996.14
2016-07-13T01:05:24.767Z,996.16
2016-07-13T01:06:24.788Z,996.09
2016-07-13T01:07:24.804Z,996.12
2016-07-13T01:08:24.822Z,996.16
2016-07-13T01:09:24.846Z,996.14
2016-07-13T01:10:24.868Z,996.19
2016-07-13T01:11:24.885Z,996.18
2016-07-13T01:12:24.903Z,996.15
2016-07-13T01:13:24.926Z,996.16
2016-07-13T01:14:24.947Z,996.13
2016-07-13T01:15:24.967Z,996.14
2016-07-13T01:16:24.983Z,996.16
2016-07-13T01:17:25.006Z,996.12
2016-07-13T01:18:25.023Z,996.16
2016-07-13T01:19:25.047Z,996.16
2016-07-13T01:20:25.067Z,996.17
2016-07-13T01:21:25.088Z,996.22
2016-07-13T01:22:25.105Z,996.2
2016-07-13T01:23:25.128Z,996.19
2016-07-13T01:24:25.148Z,996.17
2016-07-13T01:25:25.169Z,996.16
2016-07-13T01:26:25.188Z,996.16
2016-07-13T01:27:25.206Z,996.16
2016-07-13T01:28:25.226Z,996.15
2016-07-13T01:29:25.248Z,996.14
2016-07-13T01:30:25.266Z,996.19
2016-07-13T01:31:25.288Z,996.23
2016-07-13T01:32:25.305Z,996.18
2016-07-13T01:33:25.328Z,996.16
2016-07-13T01:34:25.349Z,996.19
2016-07-13T01:35:25.367Z,996.2
2016-07-13T01:36:25.384Z,996.18
2016-07-13T01:37:25.408Z,996.19
2016-07-13T01:38:25.426Z,996.17
2016-07-13T01:39:25.443Z,996.2
2016-07-13T01:40:25.465Z,996.17
2016-07-13T01:41:25.489Z,996.21
2016-07-13T01:42:25.507Z,996.17
2016-07-13T01:43:25.528Z,996.14
2016-07-13T01:44:25.547Z,996.16
2016-07-13T01:45:25.568Z,996.14
2016-07-13T01:46:25.590Z,996.1
2016-07-13T01:47:25.605Z,996.13
2016-07-13T01:48:25.626Z,996.1
2016-07-13T01:49:25.645Z,996.13
2016-07-13T01:50:25.667Z,996.11
2016-07-13T01:51:25.684Z,996.13
2016-07-13T01:52:25.703Z,996.14
2016-07-13T01:53:25.726Z,996.18
2016-07-13T01:54:25.743Z,996.18
2016-07-13T01:55:25.764Z,996.19
2016-07-13T01:56:25.782Z,996.15
2016-07-13T01:57:25.805Z,996.18
2016-07-13T01:58:25.826Z,996.17
2016-07-13T01:59:25.842Z,996.19
2016-07-13T02:00:25.865Z,996.2
2016-07-13T02:01:25.884Z,996.21
2016-07-13T02:02:25.902Z,996.24
2016-07-13T02:03:25.924Z,996.21
2016-07-13T02:04:25.942Z,996.25
2016-07-13T02:05:25.962Z,996.3
2016-07-13T02:06:25.980Z,996.27
2016-07-13T02:07:26.004Z,996.21
2016-07-13T02:08:26.026Z,996.23
2016-07-13T02:09:26.038Z,996.18
2016-07-13T02:10:26.059Z,996.16
2016-07-13T02:11:26.077Z,996.17
2016-07-13T02:12:26.100Z,996.18
2016-07-13T02:13:26.118Z,996.22
2016-07-13T02:14:26.141Z,996.21
2016-07-13T02:15:26.162Z,996.2
2016-07-13T02:16:26.177Z,996.21
2016-07-13T02:17:26.200Z,996.18
2016-07-13T02:18:26.219Z,996.22
2016-07-13T02:19:26.235Z,996.14
2016-07-13T02:20:26.257Z,996.17
2016-07-13T02:21:26.276Z,996.15
2016-07-13T02:22:26.297Z,996.1
2016-07-13T02:23:26.315Z,996.07
2016-07-13T02:24:26.334Z,996.12
2016-07-13T02:25:26.359Z,996.09
2016-07-13T02:26:26.374Z,996.05
2016-07-13T02:27:26.394Z,996.1
2016-07-13T02:28:26.415Z,996.09
2016-07-13T02:29:26.432Z,996.06
2016-07-13T02:30:26.452Z,996.08
2016-07-13T02:31:26.474Z,996.09
2016-07-13T02:32:26.492Z,996.1
2016-07-13T02:33:26.511Z,996.05
2016-07-13T02:34:26.532Z,996.16
2016-07-13T02:35:26.551Z,996.09
2016-07-13T02:36:26.572Z,996.09
2016-07-13T02:37:26.590Z,996.1
2016-07-13T02:38:26.608Z,996.09
2016-07-13T02:39:26.631Z,996.06
2016-07-13T02:40:26.650Z,996.07
2016-07-13T02:41:26.670Z,996.07
2016-07-13T02:42:26.690Z,996.08
2016-07-13T02:43:26.704Z,996.11
2016-07-13T02:44:26.728Z,996.1
2016-07-13T02:45:26.749Z,996.11
2016-07-13T02:46:26.765Z,996.14
2016-07-13T02:47:26.783Z,996.1
2016-07-13T02:48:26.804Z,996.12
2016-07-13T02:49:26.826Z,996.13
2016-07-13T02:50:26.845Z,996.1
2016-07-13T02:51:26.866Z,996.12
2016-07-13T02:52:26.884Z,996.11
2016-07-13T02:53:26.903Z,996.1
2016-07-13T02:54:26.922Z,996.14
2016-07-13T02:55:26.941Z,996.14
2016-07-13T02:56:26.963Z,996.12
2016-07-13T02:57:26.978Z,996.17
2016-07-13T02:58:26.998Z,996.19
2016-07-13T02:59:27.017Z,996.2
2016-07-13T03:00:27.043Z,996.24
2016-07-13T03:01:27.055Z,996.2
2016-07-13T03:02:27.077Z,996.28
2016-07-13T03:03:27.098Z,996.24
2016-07-13T03:04:27.120Z,996.22
2016-07-13T03:05:27.139Z,996.25
2016-07-13T03:06:27.153Z,996.23
2016-07-13T03:07:27.175Z,996.24
2016-07-13T03:08:27.194Z,996.23
2016-07-13T03:09:27.211Z,996.26
2016-07-13T03:10:27.232Z,996.22
2016-07-13T03:11:27.253Z,996.2
2016-07-13T03:12:27.271Z,996.19
2016-07-13T03:13:27.292Z,996.18
2016-07-13T03:14:27.310Z,996.19
2016-07-13T03:15:27.333Z,996.2
2016-07-13T03:16:27.348Z,996.15
2016-07-13T03:17:27.367Z,996.16
2016-07-13T03:18:27.389Z,996.17
2016-07-13T03:19:27.403Z,996.15
2016-07-13T03:20:27.427Z,996.19
2016-07-13T03:21:27.445Z,996.17
2016-07-13T03:22:27.465Z,996.17
2016-07-13T03:23:27.485Z,996.2
2016-07-13T03:24:27.503Z,996.16
2016-07-13T03:25:27.522Z,996.15
2016-07-13T03:26:27.542Z,996.13
2016-07-13T03:27:27.561Z,996.15
2016-07-13T03:28:27.582Z,996.12
2016-07-13T03:29:27.602Z,996.12
2016-07-13T03:30:27.618Z,996.1
2016-07-13T03:31:27.642Z,996.14
2016-07-13T03:32:27.658Z,996.17
2016-07-13T03:33:27.682Z,996.17
2016-07-13T03:34:27.696Z,996.17
2016-07-13T03:35:27.715Z,996.22
2016-07-13T03:36:27.738Z,996.25
2016-07-13T03:37:27.756Z,996.24
2016-07-13T03:38:27.775Z,996.24
2016-07-13T03:39:27.795Z,996.24
2016-07-13T03:40:27.812Z,996.21
2016-07-13T03:41:27.830Z,996.17
2016-07-13T03:42:27.850Z,996.2
2016-07-13T03:43:27.873Z,996.19
2016-07-13T03:44:27.890Z,996.23
2016-07-13T03:45:27.908Z,996.21
2016-07-13T03:46:27.927Z,996.21
2016-07-13T03:47:27.945Z,996.17
2016-07-13T03:48:27.967Z,996.18
2016-07-13T03:49:27.983Z,996.19
2016-07-13T03:50:28.005Z,996.2
2016-07-13T03:51:28.025Z,996.23
2016-07-13T03:52:28.049Z,996.22
2016-07-13T03:53:28.062Z,996.2
2016-07-13T03:54:28.081Z,996.24
2016-07-13T03:55:28.102Z,996.2
2016-07-13T03:56:28.118Z,996.22
2016-07-13T03:57:28.139Z,996.19
2016-07-13T03:58:28.159Z,996.18
2016-07-13T03:59:28.177Z,996.15
2016-07-13T04:00:28.198Z,996.17
2016-07-13T04:01:28.217Z,996.14
2016-07-13T04:02:28.235Z,996.14
2016-07-13T04:03:28.255Z,996.12
2016-07-13T04:04:28.273Z,996.14
2016-07-13T04:05:28.295Z,996.16
2016-07-13T04:06:28.316Z,996.17
2016-07-13T04:07:28.332Z,996.15
2016-07-13T04:08:28.352Z,996.2
2016-07-13T04:09:28.370Z,996.19
2016-07-13T04:10:28.392Z,996.22
2016-07-13T04:11:28.412Z,996.21
2016-07-13T04:12:28.431Z,996.22
2016-07-13T04:13:28.447Z,996.26
2016-07-13T04:14:28.466Z,996.25
2016-07-13T04:15:28.486Z,996.28
2016-07-13T04:16:28.507Z,996.29
2016-07-13T04:17:28.525Z,996.26
2016-07-13T04:18:28.543Z,996.3
2016-07-13T04:19:28.563Z,996.28
2016-07-13T04:20:28.585Z,996.29
2016-07-13T04:21:28.598Z,996.31
2016-07-13T04:22:28.622Z,996.32
2016-07-13T04:23:28.640Z,996.28
2016-07-13T04:24:28.659Z,996.35
2016-07-13T04:25:28.680Z,996.37
2016-07-13T04:26:28.699Z,996.4
2016-07-13T04:27:28.720Z,996.37
2016-07-13T04:28:28.739Z,996.37
2016-07-13T04:29:28.758Z,996.42
2016-07-13T04:30:28.777Z,996.39
2016-07-13T04:31:28.799Z,996.45
2016-07-13T04:32:28.815Z,996.42
2016-07-13T04:33:28.834Z,996.41
2016-07-13T04:34:28.854Z,996.46
2016-07-13T04:35:28.872Z,996.44
2016-07-13T04:36:28.895Z,996.43
2016-07-13T04:37:28.912Z,996.43
2016-07-13T04:38:28.930Z,996.38
2016-07-13T04:39:28.951Z,996.41
2016-07-13T04:40:28.968Z,996.39
2016-07-13T04:41:28.988Z,996.37
2016-07-13T04:42:29.010Z,996.37
2016-07-13T04:43:29.030Z,996.4
2016-07-13T04:44:29.052Z,996.39
2016-07-13T04:45:29.069Z,996.43
2016-07-13T04:46:29.090Z,996.44
2016-07-13T04:47:29.108Z,996.43
2016-07-13T04:48:29.125Z,996.43
2016-07-13T04:49:29.148Z,996.4
2016-07-13T04:50:29.175Z,996.38
2016-07-13T04:51:29.181Z,996.36
2016-07-13T04:52:29.202Z,996.39
2016-07-13T04:53:29.224Z,996.4
2016-07-13T04:54:29.240Z,996.42
2016-07-13T04:55:29.262Z,996.42
2016-07-13T04:56:29.283Z,996.39
2016-07-13T04:57:29.302Z,996.4
2016-07-13T04:58:29.319Z,996.43
2016-07-13T04:59:29.339Z,996.43
2016-07-13T05:00:29.361Z,996.46
2016-07-13T05:01:29.379Z,996.45
2016-07-13T05:02:29.398Z,996.39
2016-07-13T05:03:29.418Z,996.42
2016-07-13T05:04:29.440Z,996.38
2016-07-13T05:05:29.459Z,996.4
2016-07-13T05:06:29.474Z,996.39
2016-07-13T05:07:29.497Z,996.41
2016-07-13T05:08:29.518Z,996.42
2016-07-13T05:09:29.534Z,996.4
2016-07-13T05:10:29.554Z,996.41
2016-07-13T05:11:29.575Z,996.39
2016-07-13T05:12:29.592Z,996.45
2016-07-13T05:13:29.613Z,996.45
2016-07-13T05:14:29.634Z,996.44
2016-07-13T05:15:29.654Z,996.49
2016-07-13T05:16:29.670Z,996.49
2016-07-13T05:17:29.693Z,996.49
2016-07-13T05:18:29.709Z,996.49
2016-07-13T05:19:29.743Z,996.53
2016-07-13T05:20:29.750Z,996.52
2016-07-13T05:21:29.768Z,996.51
2016-07-13T05:22:29.790Z,996.54
2016-07-13T05:23:29.809Z,996.53
2016-07-13T05:24:29.828Z,996.56
2016-07-13T05:25:29.847Z,996.55
2016-07-13T05:26:29.866Z,996.58
2016-07-13T05:27:29.892Z,996.61
2016-07-13T05:28:29.904Z,996.58
2016-07-13T05:29:29.925Z,996.52
2016-07-13T05:30:29.943Z,996.57
2016-07-13T05:31:29.966Z,996.55
2016-07-13T05:32:29.983Z,996.56
2016-07-13T05:33:30.005Z,996.55
2016-07-13T05:34:30.024Z,996.53
2016-07-13T05:35:30.041Z,996.58
2016-07-13T05:36:30.063Z,996.57
2016-07-13T05:37:30.083Z,996.56
2016-07-13T05:38:30.107Z,996.6
2016-07-13T05:39:30.124Z,996.6
2016-07-13T05:40:30.137Z,996.62
2016-07-13T05:41:30.162Z,996.67
2016-07-13T05:42:30.180Z,996.75
2016-07-13T05:43:30.199Z,996.72
2016-07-13T05:44:30.219Z,996.74
2016-07-13T05:45:30.240Z,996.8
2016-07-13T05:46:30.257Z,996.81
2016-07-13T05:47:30.277Z,996.83
2016-07-13T05:48:30.299Z,996.88
2016-07-13T05:49:30.316Z,996.89
2016-07-13T05:50:30.335Z,996.88
2016-07-13T05:51:30.355Z,996.86
2016-07-13T05:52:30.378Z,996.82
2016-07-13T05:53:30.397Z,996.8
2016-07-13T05:54:30.414Z,996.82
2016-07-13T05:55:30.437Z,996.81
2016-07-13T05:56:30.456Z,996.82
2016-07-13T05:57:30.477Z,996.81
2016-07-13T05:58:30.494Z,996.8
2016-07-13T05:59:30.515Z,996.78
2016-07-13T06:00:30.538Z,996.78
2016-07-13T06:01:30.556Z,996.76
2016-07-13T06:02:30.577Z,996.81
2016-07-13T06:03:30.596Z,996.78
2016-07-13T06:04:30.616Z,996.81
2016-07-13T06:05:30.636Z,996.79
2016-07-13T06:06:30.656Z,996.87
2016-07-13T06:07:30.677Z,996.87
2016-07-13T06:08:30.697Z,996.85
2016-07-13T06:09:30.718Z,996.89
2016-07-13T06:10:30.736Z,996.89
2016-07-13T06:11:30.759Z,996.88
2016-07-13T06:12:30.781Z,996.9
2016-07-13T06:13:30.798Z,996.95
2016-07-13T06:14:30.816Z,996.88
2016-07-13T06:15:30.839Z,996.81
2016-07-13T06:16:30.857Z,996.81
2016-07-13T06:17:30.878Z,996.78
2016-07-13T06:18:30.898Z,996.81
2016-07-13T06:19:30.917Z,996.82
2016-07-13T06:20:30.937Z,996.85
2016-07-13T06:21:30.959Z,996.89
2016-07-13T06:22:30.979Z,996.91
2016-07-13T06:23:30.999Z,996.92
2016-07-13T06:24:31.022Z,997
2016-07-13T06:25:31.041Z,997.01
2016-07-13T06:26:31.059Z,997.05
2016-07-13T06:27:31.080Z,997.01
2016-07-13T06:28:31.102Z,997
2016-07-13T06:29:31.121Z,996.97
2016-07-13T06:30:31.145Z,997
2016-07-13T06:31:31.167Z,997.02
2016-07-13T06:32:31.186Z,996.94
2016-07-13T06:33:31.202Z,996.95
2016-07-13T06:34:31.228Z,996.94
2016-07-13T06:35:31.247Z,996.94
2016-07-13T06:36:31.265Z,996.93
2016-07-13T06:37:31.287Z,996.98
2016-07-13T06:38:31.305Z,997
2016-07-13T06:39:31.326Z,996.95
2016-07-13T06:40:31.351Z,996.95
2016-07-13T06:41:31.373Z,996.99
2016-07-13T06:42:31.389Z,996.96
2016-07-13T06:43:31.414Z,996.93
2016-07-13T06:44:31.432Z,997
2016-07-13T06:45:31.449Z,996.98
2016-07-13T06:46:31.472Z,997
2016-07-13T06:47:31.494Z,997.01
2016-07-13T06:48:31.514Z,996.96
2016-07-13T06:49:31.532Z,996.96
2016-07-13T06:50:31.551Z,997.02
2016-07-13T06:51:31.573Z,997.04
2016-07-13T06:52:31.601Z,996.99
2016-07-13T06:53:31.614Z,997.03
2016-07-13T06:54:31.639Z,997.03
2016-07-13T06:55:31.657Z,997
2016-07-13T06:56:31.681Z,996.97
2016-07-13T06:57:31.701Z,997.02
2016-07-13T06:58:31.720Z,997
2016-07-13T06:59:31.743Z,996.98
2016-07-13T07:00:31.762Z,997
2016-07-13T07:01:31.783Z,996.99
2016-07-13T07:02:31.803Z,996.95
2016-07-13T07:03:31.826Z,996.98
2016-07-13T07:04:31.844Z,997.03
2016-07-13T07:05:31.868Z,997.04
2016-07-13T07:06:31.883Z,997.06
2016-07-13T07:07:31.905Z,997.04
2016-07-13T07:08:31.927Z,997.07
2016-07-13T07:09:31.945Z,997.03
2016-07-13T07:10:31.972Z,997.04
2016-07-13T07:11:31.991Z,997.04
2016-07-13T07:12:32.008Z,997.12
2016-07-13T07:13:32.032Z,997.14
2016-07-13T07:14:32.050Z,997.14
2016-07-13T07:15:32.071Z,997.16
2016-07-13T07:16:32.090Z,997.16
2016-07-13T07:17:32.112Z,997.17
2016-07-13T07:18:32.134Z,997.17
2016-07-13T07:19:32.153Z,997.24
2016-07-13T07:20:32.177Z,997.17
2016-07-13T07:21:32.198Z,997.15
2016-07-13T07:22:32.218Z,997.07
2016-07-13T07:23:32.240Z,997.05
2016-07-13T07:24:32.261Z,997.1
2016-07-13T07:25:32.286Z,997.03
2016-07-13T07:26:32.303Z,997.02
2016-07-13T07:27:32.325Z,996.99
2016-07-13T07:28:32.346Z,996.93
2016-07-13T07:29:32.365Z,996.93
2016-07-13T07:30:32.387Z,996.95
2016-07-13T07:31:32.408Z,996.95
2016-07-13T07:32:32.430Z,996.94
2016-07-13T07:33:32.451Z,996.92
2016-07-13T07:34:32.471Z,996.9
2016-07-13T07:35:32.494Z,996.9
2016-07-13T07:36:32.514Z,996.95
2016-07-13T07:37:32.533Z,997.02
2016-07-13T07:38:32.554Z,996.94
2016-07-13T07:39:32.575Z,996.92
2016-07-13T07:40:32.601Z,996.97
2016-07-13T07:41:32.620Z,996.93
2016-07-13T07:42:32.643Z,996.99
2016-07-13T07:43:32.662Z,996.96
2016-07-13T07:44:32.685Z,997
2016-07-13T07:45:32.707Z,997.04
2016-07-13T07:46:32.727Z,996.99
2016-07-13T07:47:32.748Z,997.02
2016-07-13T07:48:32.769Z,997.05
2016-07-13T07:49:32.790Z,996.97
2016-07-13T07:50:32.809Z,996.94
2016-07-13T07:51:32.836Z,996.96
2016-07-13T07:52:32.852Z,996.86
2016-07-13T07:53:32.877Z,996.81
2016-07-13T07:54:32.895Z,996.87
2016-07-13T07:55:32.920Z,996.9
2016-07-13T07:56:32.941Z,996.92
2016-07-13T07:57:32.963Z,996.92
2016-07-13T07:58:32.984Z,996.9
2016-07-13T07:59:33.005Z,996.95
2016-07-13T08:00:33.024Z,996.9
2016-07-13T08:01:33.048Z,996.97
2016-07-13T08:02:33.069Z,997.03
2016-07-13T08:03:33.092Z,997.01
2016-07-13T08:04:33.111Z,997.03
2016-07-13T08:05:33.135Z,997.05
2016-07-13T08:06:33.153Z,997
2016-07-13T08:07:33.179Z,997.07
2016-07-13T08:08:33.202Z,997.08
2016-07-13T08:09:33.223Z,997.1
2016-07-13T08:10:33.247Z,997.04
2016-07-13T08:11:33.263Z,997.03
2016-07-13T08:12:33.286Z,996.96
2016-07-13T08:13:33.305Z,996.89
2016-07-13T08:14:33.328Z,996.9
2016-07-13T08:15:33.347Z,996.91
2016-07-13T08:16:33.372Z,996.87
2016-07-13T08:17:33.392Z,996.93
2016-07-13T08:18:33.412Z,996.88
2016-07-13T08:19:33.432Z,996.85
2016-07-13T08:20:33.460Z,996.87
2016-07-13T08:21:33.477Z,996.84
2016-07-13T08:22:33.499Z,996.85
2016-07-13T08:23:33.520Z,996.95
2016-07-13T08:24:33.540Z,996.94
2016-07-13T08:25:33.565Z,996.95
2016-07-13T08:26:33.588Z,996.91
2016-07-13T08:27:33.609Z,996.93
2016-07-13T08:28:33.628Z,996.98
2016-07-13T08:29:33.652Z,997.03
2016-07-13T08:30:33.676Z,996.98
2016-07-13T08:31:33.696Z,996.98
2016-07-13T08:32:33.720Z,996.99
2016-07-13T08:33:33.742Z,996.97
2016-07-13T08:34:33.763Z,996.99
2016-07-13T08:35:33.785Z,997.02
2016-07-13T08:36:33.811Z,996.96
2016-07-13T08:37:33.833Z,996.99
2016-07-13T08:38:33.852Z,996.99
2016-07-13T08:39:33.876Z,997
2016-07-13T08:40:33.894Z,996.97
2016-07-13T08:41:33.921Z,996.96
2016-07-13T08:42:33.941Z,996.98
2016-07-13T08:43:33.962Z,996.97
2016-07-13T08:44:33.985Z,996.94
2016-07-13T08:45:34.009Z,996.98
2016-07-13T08:46:34.033Z,997.05
2016-07-13T08:47:34.053Z,996.94
2016-07-13T08:48:34.073Z,996.98
2016-07-13T08:49:34.098Z,997
2016-07-13T08:50:34.122Z,996.97
2016-07-13T08:51:34.139Z,997.01
2016-07-13T08:52:34.165Z,997.04
2016-07-13T08:53:34.186Z,997.09
2016-07-13T08:54:34.209Z,997.09
2016-07-13T08:55:34.230Z,996.99
2016-07-13T08:56:34.253Z,996.99
2016-07-13T08:57:34.279Z,996.95
2016-07-13T08:58:34.298Z,997.06
2016-07-13T08:59:34.322Z,997.03
2016-07-13T09:00:34.347Z,996.99
2016-07-13T09:01:34.366Z,997.02
2016-07-13T09:02:34.390Z,996.96
2016-07-13T09:03:34.412Z,996.99
2016-07-13T09:04:34.430Z,996.89
2016-07-13T09:05:34.454Z,996.98
2016-07-13T09:06:34.476Z,996.88
2016-07-13T09:07:34.499Z,996.91
2016-07-13T09:08:34.521Z,996.91
2016-07-13T09:09:34.544Z,996.96
2016-07-13T09:10:34.564Z,996.95
2016-07-13T09:11:34.588Z,996.95
2016-07-13T09:12:34.612Z,996.97
2016-07-13T09:13:34.630Z,996.91
2016-07-13T09:14:34.653Z,996.93
2016-07-13T09:15:34.676Z,996.9
2016-07-13T09:16:34.699Z,996.92
2016-07-13T09:17:34.716Z,996.88
2016-07-13T09:18:34.742Z,996.9
2016-07-13T09:19:34.766Z,996.91
2016-07-13T09:20:34.785Z,996.89
2016-07-13T09:21:34.810Z,996.9
2016-07-13T09:22:34.830Z,996.93
2016-07-13T09:23:34.854Z,996.94
2016-07-13T09:24:34.873Z,996.82
2016-07-13T09:25:34.893Z,996.83
2016-07-13T09:26:34.918Z,996.91
2016-07-13T09:27:34.941Z,996.82
2016-07-13T09:28:34.962Z,996.84
2016-07-13T09:29:34.980Z,996.82
2016-07-13T09:30:35.006Z,996.84
2016-07-13T09:31:35.025Z,996.75
2016-07-13T09:32:35.046Z,996.89
2016-07-13T09:33:35.070Z,996.82
2016-07-13T09:34:35.092Z,996.89
2016-07-13T09:35:35.112Z,996.87
2016-07-13T09:36:35.135Z,996.86
2016-07-13T09:37:35.155Z,996.93
2016-07-13T09:38:35.179Z,996.88
2016-07-13T09:39:35.199Z,996.85
2016-07-13T09:40:35.219Z,996.85
2016-07-13T09:41:35.249Z,996.94
2016-07-13T09:42:35.269Z,996.95
2016-07-13T09:43:35.286Z,996.9
2016-07-13T09:44:35.311Z,996.85
2016-07-13T09:45:35.333Z,996.8
2016-07-13T09:46:35.355Z,996.8
2016-07-13T09:47:35.375Z,996.81
2016-07-13T09:48:35.401Z,996.83
2016-07-13T09:49:35.423Z,996.83
2016-07-13T09:50:35.446Z,996.78
2016-07-13T09:51:35.466Z,996.74
2016-07-13T09:52:35.488Z,996.68
2016-07-13T09:53:35.513Z,996.65
2016-07-13T09:54:35.533Z,996.68
2016-07-13T09:55:35.556Z,996.64
2016-07-13T09:56:35.578Z,996.66
2016-07-13T09:57:35.599Z,996.69
2016-07-13T09:58:35.620Z,996.69
2016-07-13T09:59:35.646Z,996.65
2016-07-13T10:00:35.667Z,996.72
2016-07-13T10:01:35.689Z,996.77
2016-07-13T10:02:35.710Z,996.69
2016-07-13T10:03:35.739Z,996.67
2016-07-13T10:04:35.763Z,996.64
2016-07-13T10:05:35.777Z,996.68
2016-07-13T10:06:35.802Z,996.73
2016-07-13T10:07:35.824Z,996.69
2016-07-13T10:08:35.845Z,996.64
2016-07-13T10:09:35.868Z,996.69
2016-07-13T10:10:35.890Z,996.68
2016-07-13T10:11:35.913Z,996.62
2016-07-13T10:12:35.932Z,996.65
2016-07-13T10:13:35.963Z,996.69
2016-07-13T10:14:35.980Z,996.66
2016-07-13T10:15:36.001Z,996.71
2016-07-13T10:16:36.025Z,996.69
2016-07-13T10:17:36.049Z,996.67
2016-07-13T10:18:36.072Z,996.7
2016-07-13T10:19:36.088Z,996.68
2016-07-13T10:20:36.113Z,996.78
2016-07-13T10:21:36.136Z,996.78
2016-07-13T10:22:36.159Z,996.88
2016-07-13T10:23:36.176Z,996.77
2016-07-13T10:24:36.200Z,996.81
2016-07-13T10:25:36.226Z,996.75
2016-07-13T10:26:36.249Z,996.88
2016-07-13T10:27:36.268Z,996.83
2016-07-13T10:28:36.294Z,996.8
2016-07-13T10:29:36.315Z,996.81
2016-07-13T10:30:36.335Z,996.83
2016-07-13T10:31:36.360Z,996.81
2016-07-13T10:32:36.383Z,996.82
2016-07-13T10:33:36.405Z,996.83
2016-07-13T10:34:36.428Z,996.95
2016-07-13T10:35:36.450Z,996.87
2016-07-13T10:36:36.474Z,996.83
2016-07-13T10:37:36.494Z,996.79
2016-07-13T10:38:36.517Z,996.79
2016-07-13T10:39:36.541Z,996.73
2016-07-13T10:40:36.562Z,996.68
2016-07-13T10:41:36.586Z,996.73
2016-07-13T10:42:36.605Z,996.81
2016-07-13T10:43:36.633Z,996.66
2016-07-13T10:44:36.654Z,996.7
2016-07-13T10:45:36.675Z,996.66
2016-07-13T10:46:36.697Z,996.7
2016-07-13T10:47:36.722Z,996.7
2016-07-13T10:48:36.741Z,996.66
2016-07-13T10:49:36.766Z,996.62
2016-07-13T10:50:36.789Z,996.71
2016-07-13T10:51:36.809Z,996.63
2016-07-13T10:52:36.835Z,996.59
2016-07-13T10:53:36.855Z,996.56
2016-07-13T10:54:36.883Z,996.56
2016-07-13T10:55:36.899Z,996.6
2016-07-13T10:56:36.922Z,996.56
2016-07-13T10:57:36.949Z,996.53
2016-07-13T10:58:36.970Z,996.53
2016-07-13T10:59:36.992Z,996.51
2016-07-13T11:00:37.015Z,996.53
2016-07-13T11:01:37.040Z,996.55
2016-07-13T11:02:37.061Z,996.5
2016-07-13T11:03:37.085Z,996.47
2016-07-13T11:04:37.106Z,996.44
2016-07-13T11:05:37.128Z,996.52
2016-07-13T11:06:37.152Z,996.47
2016-07-13T11:07:37.174Z,996.42
2016-07-13T11:08:37.198Z,996.54
2016-07-13T11:09:37.222Z,996.56
2016-07-13T11:10:37.240Z,996.52
2016-07-13T11:11:37.266Z,996.6
2016-07-13T11:12:37.286Z,996.53
2016-07-13T11:13:37.311Z,996.46
2016-07-13T11:14:37.334Z,996.48
2016-07-13T11:15:37.358Z,996.6
2016-07-13T11:16:37.381Z,996.48
2016-07-13T11:17:37.407Z,996.39
2016-07-13T11:18:37.428Z,996.38
2016-07-13T11:19:37.449Z,996.48
2016-07-13T11:20:37.474Z,996.44
2016-07-13T11:21:37.498Z,996.44
2016-07-13T11:22:37.519Z,996.39
2016-07-13T11:23:37.546Z,996.43
2016-07-13T11:24:37.566Z,996.51
2016-07-13T11:25:37.591Z,996.48
2016-07-13T11:26:37.611Z,996.5
2016-07-13T11:27:37.637Z,996.46
2016-07-13T11:28:37.657Z,996.52
2016-07-13T11:29:37.683Z,996.56
2016-07-13T11:30:37.701Z,996.52
2016-07-13T11:31:37.729Z,996.55
2016-07-13T11:32:37.750Z,996.52
2016-07-13T11:33:37.775Z,996.54
2016-07-13T11:34:37.797Z,996.57
2016-07-13T11:35:37.820Z,996.57
2016-07-13T11:36:37.842Z,996.49
2016-07-13T11:37:37.864Z,996.46
2016-07-13T11:38:37.888Z,996.56
2016-07-13T11:39:37.909Z,996.59
2016-07-13T11:40:37.936Z,996.53
2016-07-13T11:41:37.958Z,996.55
2016-07-13T11:42:37.983Z,996.62
2016-07-13T11:43:38.004Z,996.62
2016-07-13T11:44:38.028Z,996.61
2016-07-13T11:45:38.057Z,996.66
2016-07-13T11:46:38.077Z,996.65
2016-07-13T11:47:38.097Z,996.7
2016-07-13T11:48:38.122Z,996.74
2016-07-13T11:49:38.148Z,996.75
2016-07-13T11:50:38.168Z,996.69
2016-07-13T11:51:38.192Z,996.73
2016-07-13T11:52:38.215Z,996.71
2016-07-13T11:53:38.240Z,996.65
2016-07-13T11:54:38.259Z,996.65
2016-07-13T11:55:38.282Z,996.76
2016-07-13T11:56:38.306Z,996.73
2016-07-13T11:57:38.335Z,996.7
2016-07-13T11:58:38.354Z,996.6
2016-07-13T11:59:38.378Z,996.7
2016-07-13T12:00:38.402Z,996.7
2016-07-13T12:01:38.422Z,996.67
2016-07-13T12:02:38.448Z,996.7
2016-07-13T12:03:38.470Z,996.74
2016-07-13T12:04:38.493Z,996.76
2016-07-13T12:05:38.517Z,996.74
2016-07-13T12:06:38.542Z,996.82
2016-07-13T12:07:38.565Z,996.84
2016-07-13T12:08:38.590Z,996.8
2016-07-13T12:09:38.611Z,996.81
2016-07-13T12:10:38.635Z,996.8
2016-07-13T12:11:38.657Z,996.83
2016-07-13T12:12:38.684Z,996.78
2016-07-13T12:13:38.706Z,996.75
2016-07-13T12:14:38.731Z,996.8
2016-07-13T12:15:38.754Z,996.82
2016-07-13T12:16:38.772Z,996.77
2016-07-13T12:17:38.799Z,996.8
2016-07-13T12:18:38.822Z,996.94
2016-07-13T12:19:38.848Z,996.77
2016-07-13T12:20:38.869Z,996.82
2016-07-13T12:21:38.891Z,996.76
2016-07-13T12:22:38.916Z,996.75
2016-07-13T12:23:38.941Z,996.77
2016-07-13T12:24:38.967Z,996.75
2016-07-13T12:25:38.991Z,996.74
2016-07-13T12:26:39.013Z,996.67
2016-07-13T12:27:39.033Z,996.62
2016-07-13T12:28:39.053Z,996.7
2016-07-13T12:29:39.078Z,996.67
2016-07-13T12:30:39.104Z,996.7
2016-07-13T12:31:39.124Z,996.59
2016-07-13T12:32:39.149Z,996.62